createdAt,value
2022-11-06T00:01:57.935Z,8.52
2022-11-06T00:06:18.758Z,8.46
2022-11-06T00:10:22.491Z,8.48
2022-11-06T00:14:27.423Z,8.47
2022-11-06T00:18:30.794Z,8.52
2022-11-06T00:22:34.580Z,8.60
2022-11-06T00:26:38.238Z,8.59
2022-11-06T00:30:42.972Z,8.59
2022-11-06T00:34:46.430Z,8.53
2022-11-06T00:38:53.030Z,8.62
2022-11-06T00:42:57.754Z,8.57
2022-11-06T00:47:02.736Z,8.60
2022-11-06T00:51:07.397Z,8.67
2022-11-06T00:55:10.728Z,8.66
2022-11-06T00:59:15.330Z,8.64
2022-11-06T01:03:20.107Z,8.65
2022-11-06T01:07:24.168Z,8.64
2022-11-06T01:11:37.471Z,8.60
2022-11-06T01:15:50.112Z,8.56
2022-11-06T01:19:54.937Z,8.44
2022-11-06T01:24:00.085Z,8.31
2022-11-06T01:28:03.496Z,8.18
2022-11-06T01:32:07.977Z,8.07
2022-11-06T01:36:15.060Z,7.92
2022-11-06T01:40:18.508Z,7.81
2022-11-06T01:44:58.855Z,7.76
2022-11-06T01:49:06.715Z,7.65
2022-11-06T01:53:12.474Z,7.69
2022-11-06T01:57:15.888Z,7.72
2022-11-06T02:01:19.697Z,7.75
2022-11-06T02:05:23.163Z,7.72
2022-11-06T02:09:29.852Z,7.66
2022-11-06T02:13:44.643Z,7.67
2022-11-06T02:18:08.975Z,7.68
2022-11-06T02:22:41.728Z,7.71
2022-11-06T02:26:57.875Z,7.70
2022-11-06T02:31:06.147Z,7.77
2022-11-06T02:35:19.932Z,7.84
2022-11-06T02:39:27.916Z,7.78
2022-11-06T02:43:38.536Z,7.63
2022-11-06T02:47:44.376Z,8.12
2022-11-06T02:51:51.816Z,8.48
2022-11-06T02:55:58.957Z,8.80
2022-11-06T03:00:08.890Z,8.95
2022-11-06T03:04:16.545Z,9.07
2022-11-06T03:08:26.993Z,9.06
2022-11-06T03:12:33.860Z,9.01
2022-11-06T03:16:48.146Z,9.11
2022-11-06T03:20:59.772Z,9.08
2022-11-06T03:25:10.778Z,9.12
2022-11-06T03:29:19.403Z,9.06
2022-11-06T03:33:31.600Z,9.05
2022-11-06T03:37:41.993Z,8.92
2022-11-06T03:41:48.433Z,8.86
2022-11-06T03:45:53.934Z,8.75
2022-11-06T03:50:02.492Z,8.76
2022-11-06T03:54:11.408Z,8.69
2022-11-06T03:58:20.091Z,8.76
2022-11-06T04:02:26.196Z,8.83
2022-11-06T04:06:37.565Z,9.00
2022-11-06T04:11:02.550Z,8.98
2022-11-06T04:15:09.008Z,9.02
2022-11-06T04:19:17.290Z,9.16
2022-11-06T04:23:31.322Z,9.09
2022-11-06T04:27:49.347Z,9.13
2022-11-06T04:32:00.000Z,9.07
2022-11-06T04:36:11.070Z,9.05
2022-11-06T04:40:21.956Z,9.00
2022-11-06T04:44:30.180Z,8.92
2022-11-06T04:48:33.934Z,8.81
2022-11-06T04:52:39.423Z,8.92
2022-11-06T04:56:46.361Z,8.86
2022-11-06T05:00:52.049Z,8.87
2022-11-06T05:04:55.523Z,8.79
2022-11-06T05:08:59.246Z,8.93
2022-11-06T05:13:04.327Z,8.86
2022-11-06T05:17:08.079Z,8.79
2022-11-06T05:21:29.092Z,8.77
2022-11-06T05:25:33.948Z,8.62
2022-11-06T05:29:38.808Z,8.56
2022-11-06T05:33:42.373Z,8.58
2022-11-06T05:37:46.016Z,8.46
2022-11-06T05:41:49.392Z,8.23
2022-11-06T05:45:54.341Z,8.13
2022-11-06T05:49:57.753Z,8.20
2022-11-06T05:54:01.068Z,8.16
2022-11-06T05:58:04.480Z,8.06
2022-11-06T06:02:09.392Z,7.92
2022-11-06T06:06:12.863Z,7.85
2022-11-06T06:10:16.355Z,7.65
2022-11-06T06:14:20.092Z,7.58
2022-11-06T06:18:24.853Z,7.48
2022-11-06T06:22:28.287Z,7.39
2022-11-06T06:26:31.762Z,7.32
2022-11-06T06:30:35.967Z,7.25
2022-11-06T06:34:40.716Z,7.25
2022-11-06T06:38:44.125Z,7.17
2022-11-06T06:42:47.497Z,7.11
2022-11-06T06:46:50.888Z,7.12
2022-11-06T06:50:57.906Z,7.12
2022-11-06T06:55:01.295Z,7.13
2022-11-06T06:59:04.856Z,7.25
2022-11-06T07:03:08.271Z,7.45
2022-11-06T07:07:13.536Z,7.62
2022-11-06T07:11:18.277Z,8.21
2022-11-06T07:15:21.671Z,8.60
2022-11-06T07:19:25.083Z,9.12
2022-11-06T07:23:29.800Z,9.13
2022-11-06T07:27:33.726Z,9.48
2022-11-06T07:31:37.261Z,9.67
2022-11-06T07:35:40.665Z,9.94
2022-11-06T07:39:45.602Z,10.45
2022-11-06T07:43:50.463Z,9.91
2022-11-06T07:47:59.230Z,9.50
2022-11-06T07:52:03.197Z,9.22
2022-11-06T07:56:08.787Z,9.10
2022-11-06T08:00:12.532Z,9.37
2022-11-06T08:04:19.907Z,10.14
2022-11-06T08:08:23.000Z,11.29
2022-11-06T08:12:27.512Z,10.86
2022-11-06T08:16:30.709Z,10.32
2022-11-06T08:20:33.878Z,10.21
2022-11-06T08:24:37.152Z,10.22
2022-11-06T08:28:41.724Z,10.37
2022-11-06T08:32:44.984Z,10.53
2022-11-06T08:36:50.667Z,10.47
2022-11-06T08:40:54.072Z,10.56
2022-11-06T08:44:58.880Z,10.70
2022-11-06T08:49:02.157Z,10.78
2022-11-06T08:53:06.530Z,10.79
2022-11-06T08:57:09.788Z,10.89
2022-11-06T09:01:14.660Z,10.96
2022-11-06T09:05:18.025Z,11.06
2022-11-06T09:09:21.720Z,11.07
2022-11-06T09:13:24.875Z,11.12
2022-11-06T09:17:29.528Z,11.11
2022-11-06T09:21:32.777Z,11.04
2022-11-06T09:25:36.004Z,11.22
2022-11-06T09:29:40.875Z,11.35
2022-11-06T09:33:45.491Z,11.40
2022-11-06T09:37:48.823Z,11.49
2022-11-06T09:41:54.876Z,11.45
2022-11-06T09:46:00.515Z,11.68
2022-11-06T09:50:07.379Z,11.84
2022-11-06T09:54:14.549Z,11.86
2022-11-06T09:58:20.048Z,12.01
2022-11-06T10:02:27.804Z,12.18
2022-11-06T10:06:33.953Z,12.30
2022-11-06T10:10:41.571Z,12.43
2022-11-06T10:14:51.403Z,12.30
2022-11-06T10:18:57.423Z,12.21
2022-11-06T10:23:06.868Z,12.46
2022-11-06T10:27:14.446Z,12.44
2022-11-06T10:31:24.252Z,12.49
2022-11-06T10:35:30.060Z,12.66
2022-11-06T10:39:36.630Z,12.64
2022-11-06T10:43:44.861Z,12.49
2022-11-06T10:47:51.069Z,12.59
2022-11-06T10:52:05.310Z,12.76
2022-11-06T10:56:21.092Z,12.85
2022-11-06T11:00:24.580Z,12.93
2022-11-06T11:04:28.902Z,13.16
2022-11-06T11:08:36.949Z,13.29
2022-11-06T11:12:41.594Z,13.74
2022-11-06T11:16:46.236Z,14.01
2022-11-06T11:20:50.115Z,14.45
2022-11-06T11:25:00.229Z,15.62
2022-11-06T11:29:14.920Z,16.13
2022-11-06T11:33:21.156Z,14.52
2022-11-06T11:37:25.893Z,14.53
2022-11-06T11:41:29.358Z,14.53
2022-11-06T11:45:34.966Z,14.24
2022-11-06T11:49:38.100Z,13.94
2022-11-06T11:53:41.565Z,13.70
2022-11-06T11:57:46.858Z,13.60
2022-11-06T12:01:51.518Z,13.51
2022-11-06T12:05:55.652Z,13.58
2022-11-06T12:10:00.053Z,13.44
2022-11-06T12:14:21.865Z,13.19
2022-11-06T12:18:28.490Z,13.04
2022-11-06T12:22:35.817Z,13.06
2022-11-06T12:26:45.785Z,13.10
2022-11-06T12:30:52.757Z,13.06
2022-11-06T12:35:04.886Z,13.15
2022-11-06T12:39:15.986Z,13.52
2022-11-06T12:43:24.938Z,15.31
2022-11-06T12:47:42.658Z,14.90
2022-11-06T12:51:59.707Z,14.46
2022-11-06T12:56:13.861Z,13.95
2022-11-06T13:00:20.818Z,13.64
2022-11-06T13:04:43.363Z,13.57
2022-11-06T13:08:55.549Z,13.49
2022-11-06T13:13:14.874Z,13.33
2022-11-06T13:17:25.903Z,13.29
2022-11-06T13:21:35.131Z,13.22
2022-11-06T13:25:49.132Z,13.18
2022-11-06T13:29:53.555Z,13.09
2022-11-06T13:34:01.278Z,13.03
2022-11-06T13:38:08.649Z,12.95
2022-11-06T13:42:24.635Z,12.88
2022-11-06T13:46:37.477Z,12.78
2022-11-06T13:50:50.821Z,12.73
2022-11-06T13:55:06.451Z,12.74
2022-11-06T13:59:31.234Z,12.67
2022-11-06T14:03:52.403Z,12.67
2022-11-06T14:07:56.407Z,12.59
2022-11-06T14:12:01.388Z,12.43
2022-11-06T14:16:08.308Z,12.33
2022-11-06T14:20:31.081Z,12.23
2022-11-06T14:24:35.550Z,11.99
2022-11-06T14:28:40.672Z,11.78
2022-11-06T14:32:49.707Z,11.64
2022-11-06T14:36:53.231Z,11.50
2022-11-06T14:40:57.437Z,11.42
2022-11-06T14:45:03.876Z,11.39
2022-11-06T14:49:20.399Z,11.24
2022-11-06T14:53:26.999Z,11.11
2022-11-06T14:57:53.400Z,10.86
2022-11-06T15:02:00.203Z,10.70
2022-11-06T15:06:21.209Z,10.57
2022-11-06T15:10:51.152Z,10.29
2022-11-06T15:15:00.360Z,9.98
2022-11-06T15:19:05.110Z,9.86
2022-11-06T15:23:17.250Z,9.69
2022-11-06T15:27:23.762Z,9.52
2022-11-06T15:31:30.132Z,9.48
2022-11-06T15:35:37.372Z,9.44
2022-11-06T15:39:53.593Z,9.36
2022-11-06T15:44:01.158Z,9.28
2022-11-06T15:48:08.572Z,9.28
2022-11-06T15:52:18.252Z,9.34
2022-11-06T15:56:27.737Z,9.34
2022-11-06T16:00:35.937Z,9.34
2022-11-06T16:04:39.680Z,9.26
2022-11-06T16:08:43.488Z,9.32
2022-11-06T16:12:50.372Z,9.27
2022-11-06T16:16:55.708Z,9.28
2022-11-06T16:21:02.334Z,9.24
2022-11-06T16:25:08.407Z,9.22
2022-11-06T16:29:20.560Z,9.27
2022-11-06T16:33:25.035Z,9.29
2022-11-06T16:37:38.920Z,9.44
2022-11-06T16:42:00.991Z,9.47
2022-11-06T16:46:08.418Z,9.48
2022-11-06T16:50:46.222Z,9.46
2022-11-06T16:54:51.257Z,9.33
2022-11-06T16:58:58.300Z,9.18
2022-11-06T17:03:07.104Z,9.08
2022-11-06T17:07:20.537Z,9.01
2022-11-06T17:11:25.155Z,9.02
2022-11-06T17:15:28.745Z,8.95
2022-11-06T17:19:33.768Z,8.91
2022-11-06T17:23:37.345Z,8.93
2022-11-06T17:27:40.910Z,9.00
2022-11-06T17:31:44.700Z,8.96
2022-11-06T17:35:50.619Z,8.95
2022-11-06T17:39:54.336Z,9.00
2022-11-06T17:43:59.025Z,9.04
2022-11-06T17:48:02.678Z,9.03
2022-11-06T17:52:07.930Z,9.02
2022-11-06T17:56:11.529Z,9.11
2022-11-06T18:00:15.771Z,9.24
2022-11-06T18:04:19.740Z,9.33
2022-11-06T18:08:25.754Z,9.46
2022-11-06T18:12:29.515Z,9.41
2022-11-06T18:16:38.455Z,9.46
2022-11-06T18:20:46.135Z,9.56
2022-11-06T18:24:51.268Z,9.55
2022-11-06T18:28:54.727Z,9.58
2022-11-06T18:32:58.977Z,9.61
2022-11-06T18:37:02.776Z,9.56
2022-11-06T18:41:11.640Z,9.61
2022-11-06T18:45:15.177Z,9.68
2022-11-06T18:49:18.836Z,9.65
2022-11-06T18:53:22.749Z,9.79
2022-11-06T18:57:27.695Z,9.79
2022-11-06T19:01:31.319Z,9.83
2022-11-06T19:05:35.429Z,9.99
2022-11-06T19:09:39.095Z,10.22
2022-11-06T19:13:48.015Z,10.21
2022-11-06T19:17:55.258Z,10.26
2022-11-06T19:21:59.853Z,10.42
2022-11-06T19:26:29.455Z,10.59
2022-11-06T19:30:31.776Z,10.63
2022-11-06T19:34:39.195Z,10.76
2022-11-06T19:38:43.092Z,10.76
2022-11-06T19:42:49.710Z,10.92
2022-11-06T19:46:54.891Z,10.96
2022-11-06T19:51:00.083Z,10.94
2022-11-06T19:55:26.606Z,10.90
2022-11-06T19:59:27.748Z,10.94
2022-11-06T20:03:32.673Z,10.95
2022-11-06T20:07:37.845Z,10.99
2022-11-06T20:11:41.379Z,11.02
2022-11-06T20:15:45.175Z,11.06
2022-11-06T20:19:50.092Z,11.08
2022-11-06T20:23:53.813Z,11.04
2022-11-06T20:27:57.265Z,11.04
2022-11-06T20:32:00.881Z,11.11
2022-11-06T20:36:13.965Z,11.19
2022-11-06T20:40:18.694Z,11.19
2022-11-06T20:44:22.376Z,11.19
2022-11-06T20:48:26.025Z,11.16
2022-11-06T20:52:31.051Z,11.14
2022-11-06T20:56:34.736Z,11.15
2022-11-06T21:00:38.419Z,11.18
2022-11-06T21:04:46.067Z,11.14
2022-11-06T21:08:53.195Z,11.10
2022-11-06T21:12:59.278Z,11.14
2022-11-06T21:17:03.893Z,10.98
2022-11-06T21:21:09.594Z,10.98
2022-11-06T21:25:14.491Z,11.03
2022-11-06T21:29:17.963Z,11.02
2022-11-06T21:33:21.380Z,10.99
2022-11-06T21:37:33.120Z,11.01
2022-11-06T21:41:38.734Z,11.02
2022-11-06T21:45:42.493Z,11.01
2022-11-06T21:49:54.045Z,11.04
2022-11-06T21:54:15.935Z,11.07
2022-11-06T21:58:20.729Z,11.07
2022-11-06T22:02:24.129Z,11.08
2022-11-06T22:06:29.466Z,10.94
2022-11-06T22:10:32.957Z,10.95
2022-11-06T22:14:37.936Z,10.88
2022-11-06T22:18:42.649Z,10.84
2022-11-06T22:22:46.036Z,10.82
2022-11-06T22:26:49.496Z,10.69
2022-11-06T22:30:54.282Z,10.98
2022-11-06T22:34:57.679Z,11.09
2022-11-06T22:39:07.144Z,11.14
2022-11-06T22:43:10.641Z,11.21
2022-11-06T22:47:15.631Z,11.23
2022-11-06T22:51:20.359Z,11.25
2022-11-06T22:55:23.665Z,11.24
2022-11-06T22:59:27.359Z,11.21
2022-11-06T23:03:32.412Z,11.14
2022-11-06T23:07:35.781Z,11.14
2022-11-06T23:11:39.115Z,11.15
2022-11-06T23:15:42.600Z,11.14
2022-11-06T23:19:47.454Z,11.12
2022-11-06T23:23:51.166Z,11.12
2022-11-06T23:27:55.028Z,11.12
2022-11-06T23:31:58.359Z,11.03
2022-11-06T23:36:07.476Z,11.03
2022-11-06T23:40:12.529Z,11.01
2022-11-06T23:44:33.894Z,10.96
2022-11-06T23:48:37.286Z,11.08
2022-11-06T23:52:42.029Z,11.20
2022-11-06T23:56:45.369Z,11.32
